sensor_id;sensor_type;location;lat;lon;timestamp;temperature;humidity
17172;DHT22;8701;50.150;8.756;2023-10-09T00:04:18;14.90;99.90
17172;DHT22;8701;50.150;8.756;2023-10-09T00:08:22;14.90;99.90
17172;DHT22;8701;50.150;8.756;2023-10-09T00:12:31;14.90;99.90
17172;DHT22;8701;50.150;8.756;2023-10-09T00:16:33;14.90;99.90
17172;DHT22;8701;50.150;8.756;2023-10-09T00:20:36;14.80;99.90
17172;DHT22;8701;50.150;8.756;2023-10-09T00:24:45;14.80;99.90
17172;DHT22;8701;50.150;8.756;2023-10-09T00:28:51;14.80;99.90
17172;DHT22;8701;50.150;8.756;2023-10-09T00:32:53;14.70;99.90
17172;DHT22;8701;50.150;8.756;2023-10-09T00:37:00;14.70;99.90
17172;DHT22;8701;50.150;8.756;2023-10-09T00:41:06;14.60;99.90
17172;DHT22;8701;50.150;8.756;2023-10-09T00:45:12;14.60;99.90
17172;DHT22;8701;50.150;8.756;2023-10-09T00:49:25;14.60;99.90
17172;DHT22;8701;50.150;8.756;2023-10-09T00:53:28;14.60;99.90
17172;DHT22;8701;50.150;8.756;2023-10-09T00:57:37;14.50;99.90
17172;DHT22;8701;50.150;8.756;2023-10-09T01:01:42;14.60;99.90
17172;DHT22;8701;50.150;8.756;2023-10-09T01:05:58;14.60;99.90
17172;DHT22;8701;50.150;8.756;2023-10-09T01:10:17;14.60;99.90
17172;DHT22;8701;50.150;8.756;2023-10-09T01:14:21;14.60;99.90
17172;DHT22;8701;50.150;8.756;2023-10-09T01:18:25;14.60;99.90
17172;DHT22;8701;50.150;8.756;2023-10-09T01:22:36;14.60;99.90
17172;DHT22;8701;50.150;8.756;2023-10-09T01:26:41;14.50;99.90
17172;DHT22;8701;50.150;8.756;2023-10-09T01:30:47;14.50;99.90
17172;DHT22;8701;50.150;8.756;2023-10-09T01:34:49;14.50;99.90
17172;DHT22;8701;50.150;8.756;2023-10-09T01:38:51;14.40;99.90
17172;DHT22;8701;50.150;8.756;2023-10-09T01:42:56;14.40;99.90
17172;DHT22;8701;50.150;8.756;2023-10-09T01:46:58;14.40;99.90
17172;DHT22;8701;50.150;8.756;2023-10-09T01:51:01;14.30;99.90
17172;DHT22;8701;50.150;8.756;2023-10-09T01:55:07;14.30;99.90
17172;DHT22;8701;50.150;8.756;2023-10-09T01:59:12;14.30;99.90
17172;DHT22;8701;50.150;8.756;2023-10-09T02:03:14;14.20;99.90
17172;DHT22;8701;50.150;8.756;2023-10-09T02:07:24;14.10;99.90
17172;DHT22;8701;50.150;8.756;2023-10-09T02:11:30;14.10;99.90
17172;DHT22;8701;50.150;8.756;2023-10-09T02:15:43;14.10;99.90
17172;DHT22;8701;50.150;8.756;2023-10-09T02:20:00;14.10;99.90
17172;DHT22;8701;50.150;8.756;2023-10-09T02:24:18;14.10;99.90
17172;DHT22;8701;50.150;8.756;2023-10-09T02:28:42;14.10;99.90
17172;DHT22;8701;50.150;8.756;2023-10-09T02:32:46;14.00;99.90
17172;DHT22;8701;50.150;8.756;2023-10-09T02:36:54;14.00;99.90
17172;DHT22;8701;50.150;8.756;2023-10-09T02:41:07;14.00;99.90
17172;DHT22;8701;50.150;8.756;2023-10-09T02:45:21;14.00;99.90
17172;DHT22;8701;50.150;8.756;2023-10-09T02:49:31;14.00;99.90
17172;DHT22;8701;50.150;8.756;2023-10-09T02:53:35;14.00;99.90
17172;DHT22;8701;50.150;8.756;2023-10-09T02:57:37;13.90;99.90
17172;DHT22;8701;50.150;8.756;2023-10-09T03:01:42;13.90;99.90
17172;DHT22;8701;50.150;8.756;2023-10-09T03:05:46;13.90;99.90
17172;DHT22;8701;50.150;8.756;2023-10-09T03:09:50;13.90;99.90
17172;DHT22;8701;50.150;8.756;2023-10-09T03:13:53;13.80;99.90
17172;DHT22;8701;50.150;8.756;2023-10-09T03:17:57;13.80;99.90
17172;DHT22;8701;50.150;8.756;2023-10-09T03:22:01;13.90;99.90
17172;DHT22;8701;50.150;8.756;2023-10-09T03:26:03;13.80;99.90
17172;DHT22;8701;50.150;8.756;2023-10-09T03:30:07;13.90;99.90
17172;DHT22;8701;50.150;8.756;2023-10-09T03:34:11;13.80;99.90
17172;DHT22;8701;50.150;8.756;2023-10-09T03:38:14;13.80;99.90
17172;DHT22;8701;50.150;8.756;2023-10-09T03:42:19;13.80;99.90
17172;DHT22;8701;50.150;8.756;2023-10-09T03:46:22;13.90;99.90
17172;DHT22;8701;50.150;8.756;2023-10-09T03:50:33;13.90;99.90
17172;DHT22;8701;50.150;8.756;2023-10-09T03:54:39;14.00;99.90
17172;DHT22;8701;50.150;8.756;2023-10-09T03:58:46;13.90;99.90
17172;DHT22;8701;50.150;8.756;2023-10-09T04:02:49;13.90;99.90
17172;DHT22;8701;50.150;8.756;2023-10-09T04:06:52;13.90;99.90
17172;DHT22;8701;50.150;8.756;2023-10-09T04:10:55;13.90;99.90
17172;DHT22;8701;50.150;8.756;2023-10-09T04:15:03;13.80;99.90
17172;DHT22;8701;50.150;8.756;2023-10-09T04:19:07;13.80;99.90
17172;DHT22;8701;50.150;8.756;2023-10-09T04:23:12;13.80;99.90
17172;DHT22;8701;50.150;8.756;2023-10-09T04:27:18;13.80;99.90
17172;DHT22;8701;50.150;8.756;2023-10-09T04:31:32;13.80;99.90
17172;DHT22;8701;50.150;8.756;2023-10-09T04:35:38;13.80;99.90
17172;DHT22;8701;50.150;8.756;2023-10-09T04:39:42;13.80;99.90
17172;DHT22;8701;50.150;8.756;2023-10-09T04:43:50;13.80;99.90
17172;DHT22;8701;50.150;8.756;2023-10-09T04:47:52;13.80;99.90
17172;DHT22;8701;50.150;8.756;2023-10-09T04:51:59;13.80;99.90
17172;DHT22;8701;50.150;8.756;2023-10-09T04:56:07;13.70;99.90
17172;DHT22;8701;50.150;8.756;2023-10-09T05:00:19;13.70;99.90
17172;DHT22;8701;50.150;8.756;2023-10-09T05:04:44;13.70;99.90
17172;DHT22;8701;50.150;8.756;2023-10-09T05:08:49;13.70;99.90
17172;DHT22;8701;50.150;8.756;2023-10-09T05:12:55;13.70;99.90
17172;DHT22;8701;50.150;8.756;2023-10-09T05:17:00;13.70;99.90
17172;DHT22;8701;50.150;8.756;2023-10-09T05:21:05;13.70;99.90
17172;DHT22;8701;50.150;8.756;2023-10-09T05:25:29;13.60;99.90
17172;DHT22;8701;50.150;8.756;2023-10-09T05:29:45;13.70;99.90
17172;DHT22;8701;50.150;8.756;2023-10-09T05:34:01;13.70;99.90
17172;DHT22;8701;50.150;8.756;2023-10-09T05:38:04;13.80;99.90
17172;DHT22;8701;50.150;8.756;2023-10-09T05:42:16;13.80;99.90
17172;DHT22;8701;50.150;8.756;2023-10-09T05:46:19;13.90;99.90
17172;DHT22;8701;50.150;8.756;2023-10-09T05:50:22;13.90;99.90
17172;DHT22;8701;50.150;8.756;2023-10-09T05:54:39;13.90;99.90
17172;DHT22;8701;50.150;8.756;2023-10-09T05:59:15;13.90;99.90
17172;DHT22;8701;50.150;8.756;2023-10-09T06:03:34;14.00;99.90
17172;DHT22;8701;50.150;8.756;2023-10-09T06:07:51;14.00;99.90
17172;DHT22;8701;50.150;8.756;2023-10-09T06:12:07;14.00;99.90
17172;DHT22;8701;50.150;8.756;2023-10-09T06:16:27;14.00;99.90
17172;DHT22;8701;50.150;8.756;2023-10-09T06:20:42;14.00;99.90
17172;DHT22;8701;50.150;8.756;2023-10-09T06:25:11;14.00;99.90
17172;DHT22;8701;50.150;8.756;2023-10-09T06:29:15;14.10;99.90
17172;DHT22;8701;50.150;8.756;2023-10-09T06:33:31;14.10;99.90
17172;DHT22;8701;50.150;8.756;2023-10-09T06:37:53;14.10;99.90
17172;DHT22;8701;50.150;8.756;2023-10-09T06:42:14;14.20;99.90
17172;DHT22;8701;50.150;8.756;2023-10-09T06:46:30;14.30;99.90
17172;DHT22;8701;50.150;8.756;2023-10-09T06:50:53;14.40;99.90
17172;DHT22;8701;50.150;8.756;2023-10-09T06:54:59;14.40;99.90
17172;DHT22;8701;50.150;8.756;2023-10-09T06:59:11;14.50;99.90
17172;DHT22;8701;50.150;8.756;2023-10-09T07:03:17;14.60;99.90
17172;DHT22;8701;50.150;8.756;2023-10-09T07:07:21;14.80;99.90
17172;DHT22;8701;50.150;8.756;2023-10-09T07:11:25;14.90;99.90
17172;DHT22;8701;50.150;8.756;2023-10-09T07:15:44;15.00;99.90
17172;DHT22;8701;50.150;8.756;2023-10-09T07:20:04;15.00;99.90
17172;DHT22;8701;50.150;8.756;2023-10-09T07:24:14;15.10;99.90
17172;DHT22;8701;50.150;8.756;2023-10-09T07:28:18;15.20;99.90
17172;DHT22;8701;50.150;8.756;2023-10-09T07:32:31;15.30;99.90
17172;DHT22;8701;50.150;8.756;2023-10-09T07:36:34;15.40;99.90
17172;DHT22;8701;50.150;8.756;2023-10-09T07:40:39;15.40;99.90
17172;DHT22;8701;50.150;8.756;2023-10-09T07:44:56;15.50;99.90
17172;DHT22;8701;50.150;8.756;2023-10-09T07:49:02;15.50;99.90
17172;DHT22;8701;50.150;8.756;2023-10-09T07:53:10;15.50;99.90
17172;DHT22;8701;50.150;8.756;2023-10-09T07:57:21;15.50;99.90
17172;DHT22;8701;50.150;8.756;2023-10-09T08:01:29;15.60;99.90
17172;DHT22;8701;50.150;8.756;2023-10-09T08:05:38;15.60;99.90
17172;DHT22;8701;50.150;8.756;2023-10-09T08:09:45;15.70;99.90
17172;DHT22;8701;50.150;8.756;2023-10-09T08:13:48;15.70;99.90
17172;DHT22;8701;50.150;8.756;2023-10-09T08:17:58;15.80;99.90
17172;DHT22;8701;50.150;8.756;2023-10-09T08:22:05;15.90;99.90
17172;DHT22;8701;50.150;8.756;2023-10-09T08:26:38;16.00;99.90
17172;DHT22;8701;50.150;8.756;2023-10-09T08:30:48;16.00;99.90
17172;DHT22;8701;50.150;8.756;2023-10-09T08:34:50;16.00;99.90
17172;DHT22;8701;50.150;8.756;2023-10-09T08:38:56;16.00;99.90
17172;DHT22;8701;50.150;8.756;2023-10-09T08:43:06;16.00;99.90
17172;DHT22;8701;50.150;8.756;2023-10-09T08:47:09;16.00;99.90
17172;DHT22;8701;50.150;8.756;2023-10-09T08:51:13;16.10;99.90
17172;DHT22;8701;50.150;8.756;2023-10-09T08:55:18;16.10;99.90
17172;DHT22;8701;50.150;8.756;2023-10-09T08:59:21;16.20;99.90
17172;DHT22;8701;50.150;8.756;2023-10-09T09:03:23;16.30;99.90
17172;DHT22;8701;50.150;8.756;2023-10-09T09:07:28;16.50;99.90
17172;DHT22;8701;50.150;8.756;2023-10-09T09:11:40;16.90;99.90
17172;DHT22;8701;50.150;8.756;2023-10-09T09:15:49;17.10;99.90
17172;DHT22;8701;50.150;8.756;2023-10-09T09:19:54;17.20;99.90
17172;DHT22;8701;50.150;8.756;2023-10-09T09:23:58;17.20;99.90
17172;DHT22;8701;50.150;8.756;2023-10-09T09:28:04;17.10;99.90
17172;DHT22;8701;50.150;8.756;2023-10-09T09:32:14;17.10;99.90
17172;DHT22;8701;50.150;8.756;2023-10-09T09:36:19;17.00;99.90
17172;DHT22;8701;50.150;8.756;2023-10-09T09:40:21;17.10;99.90
17172;DHT22;8701;50.150;8.756;2023-10-09T09:44:33;17.10;99.90
17172;DHT22;8701;50.150;8.756;2023-10-09T09:48:44;17.20;99.90
17172;DHT22;8701;50.150;8.756;2023-10-09T09:52:48;17.30;99.90
17172;DHT22;8701;50.150;8.756;2023-10-09T09:56:54;17.40;99.90
17172;DHT22;8701;50.150;8.756;2023-10-09T10:01:03;17.50;99.90
17172;DHT22;8701;50.150;8.756;2023-10-09T10:05:09;17.70;99.90
17172;DHT22;8701;50.150;8.756;2023-10-09T10:09:34;17.80;99.90
17172;DHT22;8701;50.150;8.756;2023-10-09T10:13:55;17.90;99.90
17172;DHT22;8701;50.150;8.756;2023-10-09T10:18:10;17.80;99.90
17172;DHT22;8701;50.150;8.756;2023-10-09T10:22:26;17.80;99.90
17172;DHT22;8701;50.150;8.756;2023-10-09T10:26:29;17.90;99.90
17172;DHT22;8701;50.150;8.756;2023-10-09T10:30:34;17.90;99.90
17172;DHT22;8701;50.150;8.756;2023-10-09T10:34:54;17.90;99.90
17172;DHT22;8701;50.150;8.756;2023-10-09T10:38:59;17.90;99.90
17172;DHT22;8701;50.150;8.756;2023-10-09T10:43:06;17.90;99.90
17172;DHT22;8701;50.150;8.756;2023-10-09T10:47:14;18.20;99.90
17172;DHT22;8701;50.150;8.756;2023-10-09T10:51:27;18.30;99.90
17172;DHT22;8701;50.150;8.756;2023-10-09T10:55:38;18.40;99.90
17172;DHT22;8701;50.150;8.756;2023-10-09T10:59:54;18.40;99.90
17172;DHT22;8701;50.150;8.756;2023-10-09T11:04:10;18.60;99.90
17172;DHT22;8701;50.150;8.756;2023-10-09T11:08:15;19.10;99.90
17172;DHT22;8701;50.150;8.756;2023-10-09T11:12:19;19.20;99.90
17172;DHT22;8701;50.150;8.756;2023-10-09T11:16:24;19.30;99.90
17172;DHT22;8701;50.150;8.756;2023-10-09T11:20:43;19.30;99.90
17172;DHT22;8701;50.150;8.756;2023-10-09T11:24:59;19.40;99.90
17172;DHT22;8701;50.150;8.756;2023-10-09T11:29:14;19.60;99.90
17172;DHT22;8701;50.150;8.756;2023-10-09T11:33:24;19.60;99.90
17172;DHT22;8701;50.150;8.756;2023-10-09T11:37:30;19.70;99.90
17172;DHT22;8701;50.150;8.756;2023-10-09T11:41:44;19.90;99.90
17172;DHT22;8701;50.150;8.756;2023-10-09T11:45:50;20.40;99.90
17172;DHT22;8701;50.150;8.756;2023-10-09T11:49:57;20.90;99.90
17172;DHT22;8701;50.150;8.756;2023-10-09T11:54:29;20.90;99.90
17172;DHT22;8701;50.150;8.756;2023-10-09T11:58:33;20.80;99.90
17172;DHT22;8701;50.150;8.756;2023-10-09T12:02:41;20.70;99.90
17172;DHT22;8701;50.150;8.756;2023-10-09T12:06:45;20.60;99.90
17172;DHT22;8701;50.150;8.756;2023-10-09T12:10:50;20.70;99.90
17172;DHT22;8701;50.150;8.756;2023-10-09T12:14:57;20.80;99.90
17172;DHT22;8701;50.150;8.756;2023-10-09T12:18:59;20.70;99.90
17172;DHT22;8701;50.150;8.756;2023-10-09T12:23:04;20.70;99.90
17172;DHT22;8701;50.150;8.756;2023-10-09T12:27:14;20.60;99.90
17172;DHT22;8701;50.150;8.756;2023-10-09T12:31:22;20.50;99.90
17172;DHT22;8701;50.150;8.756;2023-10-09T12:35:26;20.40;99.90
17172;DHT22;8701;50.150;8.756;2023-10-09T12:39:29;20.30;99.90
17172;DHT22;8701;50.150;8.756;2023-10-09T12:43:35;20.20;99.90
17172;DHT22;8701;50.150;8.756;2023-10-09T12:47:40;20.20;99.90
17172;DHT22;8701;50.150;8.756;2023-10-09T12:51:43;20.20;99.90
17172;DHT22;8701;50.150;8.756;2023-10-09T12:55:45;20.30;99.90
17172;DHT22;8701;50.150;8.756;2023-10-09T12:59:48;20.30;99.90
17172;DHT22;8701;50.150;8.756;2023-10-09T13:03:52;20.40;99.90
17172;DHT22;8701;50.150;8.756;2023-10-09T13:07:55;20.40;99.90
17172;DHT22;8701;50.150;8.756;2023-10-09T13:11:57;20.40;99.90
17172;DHT22;8701;50.150;8.756;2023-10-09T13:16:01;20.50;99.90
17172;DHT22;8701;50.150;8.756;2023-10-09T13:20:09;20.50;99.90
17172;DHT22;8701;50.150;8.756;2023-10-09T13:24:14;20.50;99.90
17172;DHT22;8701;50.150;8.756;2023-10-09T13:28:16;20.50;99.90
17172;DHT22;8701;50.150;8.756;2023-10-09T13:32:21;20.50;99.90
17172;DHT22;8701;50.150;8.756;2023-10-09T13:36:26;20.50;99.90
17172;DHT22;8701;50.150;8.756;2023-10-09T13:40:33;20.50;99.90
17172;DHT22;8701;50.150;8.756;2023-10-09T13:44:38;20.40;99.90
17172;DHT22;8701;50.150;8.756;2023-10-09T13:48:43;20.40;99.90
17172;DHT22;8701;50.150;8.756;2023-10-09T13:52:47;20.40;99.90
17172;DHT22;8701;50.150;8.756;2023-10-09T13:56:50;20.40;99.90
17172;DHT22;8701;50.150;8.756;2023-10-09T14:00:53;20.30;99.90
17172;DHT22;8701;50.150;8.756;2023-10-09T14:04:57;20.30;99.90
17172;DHT22;8701;50.150;8.756;2023-10-09T14:09:04;20.30;99.90
17172;DHT22;8701;50.150;8.756;2023-10-09T14:13:06;20.30;99.90
17172;DHT22;8701;50.150;8.756;2023-10-09T14:17:13;20.30;99.90
17172;DHT22;8701;50.150;8.756;2023-10-09T14:21:19;20.30;99.90
17172;DHT22;8701;50.150;8.756;2023-10-09T14:25:24;20.20;99.90
17172;DHT22;8701;50.150;8.756;2023-10-09T14:29:29;20.20;99.90
17172;DHT22;8701;50.150;8.756;2023-10-09T14:33:31;20.20;99.90
17172;DHT22;8701;50.150;8.756;2023-10-09T14:37:37;20.10;99.90
17172;DHT22;8701;50.150;8.756;2023-10-09T14:41:41;20.10;99.90
17172;DHT22;8701;50.150;8.756;2023-10-09T14:45:43;20.10;99.90
17172;DHT22;8701;50.150;8.756;2023-10-09T14:49:47;20.00;99.90
17172;DHT22;8701;50.150;8.756;2023-10-09T14:53:50;20.00;99.90
17172;DHT22;8701;50.150;8.756;2023-10-09T14:57:55;19.90;99.90
17172;DHT22;8701;50.150;8.756;2023-10-09T15:01:59;19.90;99.90
17172;DHT22;8701;50.150;8.756;2023-10-09T15:06:02;19.90;99.90
17172;DHT22;8701;50.150;8.756;2023-10-09T15:10:05;19.80;99.90
17172;DHT22;8701;50.150;8.756;2023-10-09T15:14:12;19.80;99.90
17172;DHT22;8701;50.150;8.756;2023-10-09T15:18:14;19.70;99.90
17172;DHT22;8701;50.150;8.756;2023-10-09T15:22:19;19.70;99.90
17172;DHT22;8701;50.150;8.756;2023-10-09T15:26:23;19.60;99.90
17172;DHT22;8701;50.150;8.756;2023-10-09T15:30:27;19.60;99.90
17172;DHT22;8701;50.150;8.756;2023-10-09T15:34:29;19.60;99.90
17172;DHT22;8701;50.150;8.756;2023-10-09T15:38:32;19.50;99.90
17172;DHT22;8701;50.150;8.756;2023-10-09T15:42:34;19.50;99.90
17172;DHT22;8701;50.150;8.756;2023-10-09T15:46:39;19.50;99.90
17172;DHT22;8701;50.150;8.756;2023-10-09T15:50:45;19.50;99.90
17172;DHT22;8701;50.150;8.756;2023-10-09T15:54:49;19.40;99.90
17172;DHT22;8701;50.150;8.756;2023-10-09T15:58:52;19.40;99.90
17172;DHT22;8701;50.150;8.756;2023-10-09T16:02:56;19.30;99.90
17172;DHT22;8701;50.150;8.756;2023-10-09T16:07:02;19.30;99.90
17172;DHT22;8701;50.150;8.756;2023-10-09T16:11:06;19.20;99.90
17172;DHT22;8701;50.150;8.756;2023-10-09T16:15:09;19.10;99.90
17172;DHT22;8701;50.150;8.756;2023-10-09T16:19:16;19.00;99.90
17172;DHT22;8701;50.150;8.756;2023-10-09T16:23:19;18.90;99.90
17172;DHT22;8701;50.150;8.756;2023-10-09T16:27:21;18.90;99.90
17172;DHT22;8701;50.150;8.756;2023-10-09T16:31:24;18.80;99.90
17172;DHT22;8701;50.150;8.756;2023-10-09T16:35:28;18.70;99.90
17172;DHT22;8701;50.150;8.756;2023-10-09T16:39:30;18.60;99.90
17172;DHT22;8701;50.150;8.756;2023-10-09T16:43:39;18.60;99.90
17172;DHT22;8701;50.150;8.756;2023-10-09T16:47:46;18.50;99.90
17172;DHT22;8701;50.150;8.756;2023-10-09T16:51:49;18.50;99.90
17172;DHT22;8701;50.150;8.756;2023-10-09T16:55:52;18.40;99.90
17172;DHT22;8701;50.150;8.756;2023-10-09T16:59:58;18.30;99.90
17172;DHT22;8701;50.150;8.756;2023-10-09T17:04:00;18.30;99.90
17172;DHT22;8701;50.150;8.756;2023-10-09T17:08:05;18.20;99.90
17172;DHT22;8701;50.150;8.756;2023-10-09T17:12:10;18.20;99.90
17172;DHT22;8701;50.150;8.756;2023-10-09T17:16:16;18.10;99.90
17172;DHT22;8701;50.150;8.756;2023-10-09T17:20:19;18.10;99.90
17172;DHT22;8701;50.150;8.756;2023-10-09T17:24:23;18.00;99.90
17172;DHT22;8701;50.150;8.756;2023-10-09T17:28:26;18.00;99.90
17172;DHT22;8701;50.150;8.756;2023-10-09T17:32:28;17.90;99.90
17172;DHT22;8701;50.150;8.756;2023-10-09T17:36:30;17.90;99.90
17172;DHT22;8701;50.150;8.756;2023-10-09T17:40:34;17.80;99.90
17172;DHT22;8701;50.150;8.756;2023-10-09T17:44:36;17.80;99.90
17172;DHT22;8701;50.150;8.756;2023-10-09T17:48:39;17.70;99.90
17172;DHT22;8701;50.150;8.756;2023-10-09T17:52:42;17.70;99.90
17172;DHT22;8701;50.150;8.756;2023-10-09T17:56:46;17.60;99.90
17172;DHT22;8701;50.150;8.756;2023-10-09T18:00:48;17.60;99.90
17172;DHT22;8701;50.150;8.756;2023-10-09T18:04:52;17.60;99.90
17172;DHT22;8701;50.150;8.756;2023-10-09T18:08:54;17.50;99.90
17172;DHT22;8701;50.150;8.756;2023-10-09T18:12:58;17.40;99.90
17172;DHT22;8701;50.150;8.756;2023-10-09T18:17:00;17.20;99.90
17172;DHT22;8701;50.150;8.756;2023-10-09T18:21:03;17.10;99.90
17172;DHT22;8701;50.150;8.756;2023-10-09T18:25:07;17.00;99.90
17172;DHT22;8701;50.150;8.756;2023-10-09T18:29:11;17.00;99.90
17172;DHT22;8701;50.150;8.756;2023-10-09T18:33:14;16.90;99.90
17172;DHT22;8701;50.150;8.756;2023-10-09T18:37:16;16.80;99.90
17172;DHT22;8701;50.150;8.756;2023-10-09T18:41:20;16.80;99.90
17172;DHT22;8701;50.150;8.756;2023-10-09T18:45:24;16.80;99.90
17172;DHT22;8701;50.150;8.756;2023-10-09T18:49:27;16.80;99.90
17172;DHT22;8701;50.150;8.756;2023-10-09T18:53:29;16.70;99.90
17172;DHT22;8701;50.150;8.756;2023-10-09T18:57:32;16.70;99.90
17172;DHT22;8701;50.150;8.756;2023-10-09T19:01:37;16.70;99.90
17172;DHT22;8701;50.150;8.756;2023-10-09T19:05:42;16.60;99.90
17172;DHT22;8701;50.150;8.756;2023-10-09T19:09:45;16.60;99.90
17172;DHT22;8701;50.150;8.756;2023-10-09T19:13:47;16.60;99.90
17172;DHT22;8701;50.150;8.756;2023-10-09T19:17:50;16.60;99.90
17172;DHT22;8701;50.150;8.756;2023-10-09T19:21:53;16.60;99.90
17172;DHT22;8701;50.150;8.756;2023-10-09T19:25:55;16.50;99.90
17172;DHT22;8701;50.150;8.756;2023-10-09T19:29:59;16.50;99.90
17172;DHT22;8701;50.150;8.756;2023-10-09T19:34:06;16.50;99.90
17172;DHT22;8701;50.150;8.756;2023-10-09T19:38:10;16.40;99.90
17172;DHT22;8701;50.150;8.756;2023-10-09T19:42:13;16.40;99.90
17172;DHT22;8701;50.150;8.756;2023-10-09T19:46:16;16.30;99.90
17172;DHT22;8701;50.150;8.756;2023-10-09T19:50:20;16.30;99.90
17172;DHT22;8701;50.150;8.756;2023-10-09T19:54:22;16.20;99.90
17172;DHT22;8701;50.150;8.756;2023-10-09T19:58:24;16.20;99.90
17172;DHT22;8701;50.150;8.756;2023-10-09T20:02:26;16.10;99.90
17172;DHT22;8701;50.150;8.756;2023-10-09T20:06:30;16.00;99.90
17172;DHT22;8701;50.150;8.756;2023-10-09T20:10:33;16.00;99.90
17172;DHT22;8701;50.150;8.756;2023-10-09T20:14:39;15.90;99.90
17172;DHT22;8701;50.150;8.756;2023-10-09T20:18:41;15.90;99.90
17172;DHT22;8701;50.150;8.756;2023-10-09T20:22:46;15.80;99.90
17172;DHT22;8701;50.150;8.756;2023-10-09T20:26:49;15.80;99.90
17172;DHT22;8701;50.150;8.756;2023-10-09T20:30:52;15.80;99.90
17172;DHT22;8701;50.150;8.756;2023-10-09T20:34:54;15.80;99.90
17172;DHT22;8701;50.150;8.756;2023-10-09T20:38:59;15.80;99.90
17172;DHT22;8701;50.150;8.756;2023-10-09T20:43:01;15.80;99.90
17172;DHT22;8701;50.150;8.756;2023-10-09T20:47:04;15.80;99.90
17172;DHT22;8701;50.150;8.756;2023-10-09T20:51:06;15.80;99.90
17172;DHT22;8701;50.150;8.756;2023-10-09T20:55:13;15.90;99.90
17172;DHT22;8701;50.150;8.756;2023-10-09T20:59:20;15.80;99.90
17172;DHT22;8701;50.150;8.756;2023-10-09T21:03:23;15.80;99.90
17172;DHT22;8701;50.150;8.756;2023-10-09T21:07:25;15.80;99.90
17172;DHT22;8701;50.150;8.756;2023-10-09T21:11:32;15.70;99.90
17172;DHT22;8701;50.150;8.756;2023-10-09T21:15:36;15.60;99.90
17172;DHT22;8701;50.150;8.756;2023-10-09T21:19:39;15.50;99.90
17172;DHT22;8701;50.150;8.756;2023-10-09T21:23:42;15.50;99.90
17172;DHT22;8701;50.150;8.756;2023-10-09T21:27:46;15.50;99.90
17172;DHT22;8701;50.150;8.756;2023-10-09T21:31:49;15.50;99.90
17172;DHT22;8701;50.150;8.756;2023-10-09T21:35:55;15.50;99.90
17172;DHT22;8701;50.150;8.756;2023-10-09T21:39:59;15.50;99.90
17172;DHT22;8701;50.150;8.756;2023-10-09T21:44:05;15.50;99.90
17172;DHT22;8701;50.150;8.756;2023-10-09T21:48:14;15.50;99.90
17172;DHT22;8701;50.150;8.756;2023-10-09T21:52:18;15.40;99.90
17172;DHT22;8701;50.150;8.756;2023-10-09T21:56:20;15.40;99.90
17172;DHT22;8701;50.150;8.756;2023-10-09T22:00:25;15.30;99.90
17172;DHT22;8701;50.150;8.756;2023-10-09T22:04:33;15.30;99.90
17172;DHT22;8701;50.150;8.756;2023-10-09T22:08:35;15.30;99.90
17172;DHT22;8701;50.150;8.756;2023-10-09T22:12:38;15.20;99.90
17172;DHT22;8701;50.150;8.756;2023-10-09T22:16:42;15.20;99.90
17172;DHT22;8701;50.150;8.756;2023-10-09T22:20:46;15.10;99.90
17172;DHT22;8701;50.150;8.756;2023-10-09T22:24:48;15.10;99.90
17172;DHT22;8701;50.150;8.756;2023-10-09T22:28:51;15.00;99.90
17172;DHT22;8701;50.150;8.756;2023-10-09T22:32:55;15.00;99.90
17172;DHT22;8701;50.150;8.756;2023-10-09T22:37:03;15.00;99.90
17172;DHT22;8701;50.150;8.756;2023-10-09T22:41:14;14.90;99.90
17172;DHT22;8701;50.150;8.756;2023-10-09T22:45:20;14.90;99.90
17172;DHT22;8701;50.150;8.756;2023-10-09T22:49:32;14.90;99.90
17172;DHT22;8701;50.150;8.756;2023-10-09T22:53:35;14.80;99.90
17172;DHT22;8701;50.150;8.756;2023-10-09T22:57:39;14.80;99.90
17172;DHT22;8701;50.150;8.756;2023-10-09T23:01:44;14.80;99.90
17172;DHT22;8701;50.150;8.756;2023-10-09T23:05:47;14.80;99.90
17172;DHT22;8701;50.150;8.756;2023-10-09T23:09:53;14.80;99.90
17172;DHT22;8701;50.150;8.756;2023-10-09T23:13:56;14.70;99.90
17172;DHT22;8701;50.150;8.756;2023-10-09T23:18:16;14.70;99.90
17172;DHT22;8701;50.150;8.756;2023-10-09T23:22:34;14.70;99.90
17172;DHT22;8701;50.150;8.756;2023-10-09T23:26:48;14.70;99.90
17172;DHT22;8701;50.150;8.756;2023-10-09T23:30:55;14.60;99.90
17172;DHT22;8701;50.150;8.756;2023-10-09T23:34:58;14.60;99.90
17172;DHT22;8701;50.150;8.756;2023-10-09T23:39:02;14.60;99.90
17172;DHT22;8701;50.150;8.756;2023-10-09T23:43:14;14.50;99.90
17172;DHT22;8701;50.150;8.756;2023-10-09T23:47:20;14.50;99.90
17172;DHT22;8701;50.150;8.756;2023-10-09T23:51:27;14.50;99.90
17172;DHT22;8701;50.150;8.756;2023-10-09T23:55:31;14.50;99.90
17172;DHT22;8701;50.150;8.756;2023-10-09T23:59:33;14.50;99.90
